Arborfield, Canada
Current Conditions -  °F | °C
As of 8:11 PM on Friday 28 Nov 2014 (Local Time) from CYBU Reporting Station
Light Snow Light Snow  
Wind Chill: -24°   Ceiling: 8000
Heat Index: -4°   Visibility: 6mi
Dew Point: -9°   Wind: 14mph
Humidity: 78%   Direction: 20°NNE
Pressure: 29.75"   Gusts: 21mph
Location:  53.12°N, 103.65°W
Report Text: CYBU 290211Z AUTO 02012G18KT 6SM -SN SCT025 OVC080 M20/M23 A2975 RMK PRESRR SLP113
Loading
Personal Weather Stations






























Interactive Weather Map New forecast layout! Learn more

10-Day Weather Forecast

Advertisements
Track Severe Weather on mobile